createdAt,value
2018-10-16T00:01:44.280Z,11.35
2018-10-16T00:04:56.074Z,9.83
2018-10-16T00:08:08.181Z,9.23
2018-10-16T00:11:19.691Z,10.88
2018-10-16T00:14:31.725Z,9.80
2018-10-16T00:17:43.544Z,11.20
2018-10-16T00:20:55.565Z,8.55
2018-10-16T00:24:07.539Z,9.58
2018-10-16T00:27:19.065Z,8.80
2018-10-16T00:30:30.769Z,10.80
2018-10-16T00:33:42.615Z,10.18
2018-10-16T00:36:54.545Z,9.10
2018-10-16T00:40:07.429Z,14.25
2018-10-16T00:43:19.192Z,9.83
2018-10-16T00:46:31.358Z,7.67
2018-10-16T00:49:43.229Z,10.13
2018-10-16T00:52:54.786Z,10.08
2018-10-16T00:56:07.362Z,10.68
2018-10-16T00:59:18.537Z,10.20
2018-10-16T01:02:30.883Z,10.55
2018-10-16T01:05:42.626Z,9.50
2018-10-16T01:08:56.306Z,10.35
2018-10-16T01:12:08.401Z,9.63
2018-10-16T01:15:20.179Z,11.68
2018-10-16T01:18:32.487Z,12.30
2018-10-16T01:21:44.225Z,9.98
2018-10-16T01:24:56.261Z,10.13
2018-10-16T01:28:08.198Z,10.55
2018-10-16T01:31:19.887Z,9.33
2018-10-16T01:34:31.921Z,11.12
2018-10-16T01:37:43.612Z,11.10
2018-10-16T01:40:54.775Z,8.93
2018-10-16T01:44:06.621Z,8.20
2018-10-16T01:47:18.466Z,9.83
2018-10-16T01:50:30.742Z,11.43
2018-10-16T01:53:42.134Z,10.78
2018-10-16T01:56:54.399Z,8.58
2018-10-16T02:00:06.509Z,11.83
2018-10-16T02:03:17.712Z,8.98
2018-10-16T02:06:29.807Z,11.28
2018-10-16T02:09:41.487Z,14.03
2018-10-16T02:12:53.464Z,9.70
2018-10-16T02:16:05.823Z,9.90
2018-10-16T02:19:17.193Z,9.10
2018-10-16T02:22:28.602Z,10.53
2018-10-16T02:25:40.147Z,11.20
2018-10-16T02:28:52.214Z,9.60
2018-10-16T02:32:04.274Z,11.08
2018-10-16T02:35:15.964Z,11.00
2018-10-16T02:38:27.783Z,11.97
2018-10-16T02:41:39.689Z,9.25
2018-10-16T02:44:51.222Z,9.88
2018-10-16T02:48:03.137Z,10.45
2018-10-16T02:51:14.905Z,9.60
2018-10-16T02:54:26.157Z,10.93
2018-10-16T02:57:38.323Z,9.73
2018-10-16T03:00:50.177Z,10.20
2018-10-16T03:04:02.083Z,8.68
2018-10-16T03:07:14.184Z,8.85
2018-10-16T03:10:25.683Z,9.05
2018-10-16T03:13:37.452Z,12.13
2018-10-16T03:16:49.556Z,11.28
2018-10-16T03:20:01.203Z,11.03
2018-10-16T03:23:13.402Z,8.43
2018-10-16T03:26:25.131Z,10.00
2018-10-16T03:29:37.107Z,10.43
2018-10-16T03:32:48.950Z,8.70
2018-10-16T03:36:00.767Z,12.15
2018-10-16T03:39:13.477Z,10.48
2018-10-16T03:42:25.506Z,11.90
2018-10-16T03:45:37.331Z,10.50
2018-10-16T03:48:49.047Z,9.30
2018-10-16T03:52:00.149Z,10.20
2018-10-16T03:55:11.973Z,10.68
2018-10-16T03:58:24.581Z,9.88
2018-10-16T04:01:36.283Z,10.72
2018-10-16T04:04:47.877Z,11.73
2018-10-16T04:07:59.607Z,10.85
2018-10-16T04:11:11.464Z,12.15
2018-10-16T04:14:23.438Z,9.73
2018-10-16T04:17:35.094Z,9.63
2018-10-16T04:20:46.681Z,10.15
2018-10-16T04:23:59.297Z,10.43
2018-10-16T04:27:11.207Z,11.60
2018-10-16T04:30:23.060Z,11.80
2018-10-16T04:33:34.792Z,11.50
2018-10-16T04:36:46.770Z,10.30
2018-10-16T04:39:58.772Z,8.95
2018-10-16T04:43:10.773Z,11.00
2018-10-16T04:46:22.638Z,9.80
2018-10-16T04:49:34.581Z,12.03
2018-10-16T04:52:46.198Z,12.35
2018-10-16T04:55:58.203Z,10.35
2018-10-16T04:59:10.456Z,13.60
2018-10-16T05:02:22.088Z,11.25
2018-10-16T05:05:34.085Z,12.03
2018-10-16T05:08:45.684Z,10.43
2018-10-16T05:11:57.709Z,12.30
2018-10-16T05:15:15.261Z,12.63
2018-10-16T05:18:26.818Z,9.78
2018-10-16T05:21:38.791Z,10.40
2018-10-16T05:24:51.685Z,11.22
2018-10-16T05:28:03.301Z,13.13
2018-10-16T05:31:14.916Z,11.18
2018-10-16T05:34:26.671Z,8.63
2018-10-16T05:37:38.925Z,8.05
2018-10-16T05:40:50.616Z,9.68
2018-10-16T05:44:02.512Z,8.40
2018-10-16T05:47:14.357Z,8.73
2018-10-16T05:50:26.354Z,10.70
2018-10-16T05:53:38.383Z,8.85
2018-10-16T05:56:50.160Z,10.65
2018-10-16T06:01:06.918Z,8.63
2018-10-16T06:04:18.102Z,9.50
2018-10-16T06:09:01.430Z,8.55
2018-10-16T06:12:13.492Z,9.80
2018-10-16T06:15:25.603Z,12.88
2018-10-16T06:18:37.802Z,9.98
2018-10-16T06:21:48.960Z,14.47
2018-10-16T06:25:01.437Z,13.45
2018-10-16T06:28:27.431Z,6.60
2018-10-16T06:31:39.485Z,9.88
2018-10-16T06:34:50.738Z,10.45
2018-10-16T06:38:01.769Z,9.30
2018-10-16T06:41:13.439Z,10.78
2018-10-16T06:44:25.448Z,10.58
2018-10-16T06:47:37.446Z,11.22
2018-10-16T06:50:49.675Z,12.00
2018-10-16T06:54:01.701Z,11.85
2018-10-16T06:57:13.569Z,12.13
2018-10-16T07:00:25.467Z,13.28
2018-10-16T07:03:37.046Z,10.55
2018-10-16T07:06:48.982Z,14.75
2018-10-16T07:10:01.050Z,12.70
2018-10-16T07:13:12.995Z,13.20
2018-10-16T07:16:24.449Z,11.22
2018-10-16T07:19:35.971Z,10.75
2018-10-16T07:22:47.887Z,13.05
2018-10-16T07:25:59.185Z,10.43
2018-10-16T07:29:10.567Z,12.98
2018-10-16T07:32:22.142Z,13.90
2018-10-16T07:35:33.325Z,14.20
2018-10-16T07:38:45.255Z,11.65
2018-10-16T07:41:57.287Z,11.48
2018-10-16T07:45:09.081Z,11.60
2018-10-16T07:48:20.446Z,10.85
2018-10-16T07:51:32.557Z,12.45
2018-10-16T07:54:43.794Z,11.43
2018-10-16T07:57:55.690Z,8.55
2018-10-16T08:01:07.550Z,9.88
2018-10-16T08:04:19.296Z,8.68
2018-10-16T08:07:30.585Z,11.03
2018-10-16T08:10:42.241Z,8.30
2018-10-16T08:13:54.176Z,11.18
2018-10-16T08:17:06.774Z,10.32
2018-10-16T08:20:18.674Z,11.53
2018-10-16T08:23:30.651Z,15.85
2018-10-16T08:26:42.707Z,10.50
2018-10-16T08:29:54.297Z,9.40
2018-10-16T08:33:07.868Z,18.12
2018-10-16T08:36:21.442Z,10.30
2018-10-16T08:39:38.617Z,11.08
2018-10-16T08:44:11.620Z,8.85
2018-10-16T08:47:40.249Z,10.00
2018-10-16T08:51:09.664Z,10.70
2018-10-16T08:54:21.546Z,10.70
2018-10-16T08:57:33.613Z,9.13
2018-10-16T09:00:46.256Z,13.15
2018-10-16T09:03:59.075Z,12.47
2018-10-16T09:07:11.562Z,10.58
2018-10-16T09:10:23.830Z,13.58
2018-10-16T09:13:35.250Z,13.78
2018-10-16T09:16:47.966Z,10.45
2018-10-16T09:20:02.235Z,10.75
2018-10-16T09:23:15.512Z,11.00
2018-10-16T09:26:26.686Z,9.68
2018-10-16T09:29:39.250Z,10.48
2018-10-16T09:32:51.070Z,10.82
2018-10-16T09:36:03.655Z,10.95
2018-10-16T09:39:15.503Z,10.03
2018-10-16T09:42:30.184Z,10.88
2018-10-16T09:45:42.544Z,9.15
2018-10-16T09:48:54.286Z,9.90
2018-10-16T09:52:06.881Z,12.95
2018-10-16T09:55:18.829Z,9.98
2018-10-16T09:58:30.699Z,10.78
2018-10-16T10:01:44.038Z,10.75
2018-10-16T10:04:55.771Z,10.68
2018-10-16T10:08:07.941Z,10.55
2018-10-16T10:11:19.583Z,13.03
2018-10-16T10:14:32.054Z,11.35
2018-10-16T10:17:43.608Z,11.12
2018-10-16T10:20:55.682Z,10.60
2018-10-16T10:24:07.791Z,13.10
2018-10-16T10:27:19.800Z,10.35
2018-10-16T10:30:31.826Z,11.63
2018-10-16T10:33:44.811Z,10.18
2018-10-16T10:36:58.012Z,12.75
2018-10-16T10:40:10.440Z,9.85
2018-10-16T10:43:22.533Z,10.35
2018-10-16T10:46:34.691Z,11.88
2018-10-16T10:49:46.464Z,11.60
2018-10-16T10:52:58.850Z,11.68
2018-10-16T10:56:10.986Z,9.55
2018-10-16T10:59:23.289Z,11.18
2018-10-16T11:02:35.477Z,11.88
2018-10-16T11:05:48.014Z,11.25
2018-10-16T11:09:00.426Z,11.78
2018-10-16T11:12:12.016Z,10.08
2018-10-16T11:15:24.427Z,12.18
2018-10-16T11:18:36.389Z,10.75
2018-10-16T11:21:48.693Z,13.38
2018-10-16T11:25:01.064Z,9.95
2018-10-16T11:28:12.944Z,12.25
2018-10-16T11:31:25.003Z,12.33
2018-10-16T11:34:36.993Z,10.48
2018-10-16T11:37:48.730Z,9.60
2018-10-16T11:41:00.905Z,10.68
2018-10-16T11:44:13.876Z,11.08
2018-10-16T11:47:25.415Z,10.00
2018-10-16T11:50:37.180Z,8.73
2018-10-16T11:53:49.281Z,10.85
2018-10-16T11:57:00.739Z,9.23
2018-10-16T12:00:16.865Z,13.40
2018-10-16T12:03:28.938Z,9.70
2018-10-16T12:06:43.566Z,10.32
2018-10-16T12:09:54.912Z,10.82
2018-10-16T12:13:06.801Z,9.88
2018-10-16T12:16:21.544Z,9.93
2018-10-16T12:19:39.288Z,9.53
2018-10-16T12:22:51.851Z,11.55
2018-10-16T12:26:03.931Z,10.95
2018-10-16T12:29:16.142Z,10.45
2018-10-16T12:32:27.907Z,10.55
2018-10-16T12:35:40.168Z,10.28
2018-10-16T12:38:52.212Z,11.18
2018-10-16T12:42:04.653Z,8.95
2018-10-16T12:45:16.301Z,11.35
2018-10-16T12:48:29.218Z,13.53
2018-10-16T12:51:41.740Z,12.88
2018-10-16T12:54:54.089Z,9.80
2018-10-16T12:58:07.071Z,11.45
2018-10-16T13:01:18.925Z,11.25
2018-10-16T13:04:30.927Z,12.28
2018-10-16T13:07:43.199Z,14.10
2018-10-16T13:10:54.790Z,13.15
2018-10-16T13:14:07.676Z,13.10
2018-10-16T13:17:19.901Z,14.70
2018-10-16T13:20:32.569Z,16.48
2018-10-16T13:23:44.642Z,12.28
2018-10-16T13:26:57.313Z,14.50
2018-10-16T13:30:11.715Z,11.97
2018-10-16T13:33:24.485Z,13.80
2018-10-16T13:36:36.934Z,13.30
2018-10-16T13:39:49.459Z,14.73
2018-10-16T13:43:02.081Z,10.70
2018-10-16T13:46:14.377Z,12.37
2018-10-16T13:49:25.979Z,15.18
2018-10-16T13:52:39.306Z,11.22
2018-10-16T13:55:50.995Z,12.73
2018-10-16T13:59:03.168Z,12.10
2018-10-16T14:02:15.621Z,11.10
2018-10-16T14:05:27.969Z,12.30
2018-10-16T14:08:40.568Z,11.93
2018-10-16T14:11:52.301Z,13.88
2018-10-16T14:15:04.773Z,13.15
2018-10-16T14:18:21.066Z,13.00
2018-10-16T14:21:32.557Z,13.28
2018-10-16T14:24:47.985Z,13.95
2018-10-16T14:27:59.540Z,16.52
2018-10-16T14:31:11.844Z,17.27
2018-10-16T14:34:23.240Z,19.12
2018-10-16T14:37:35.156Z,15.78
2018-10-16T14:40:47.101Z,14.38
2018-10-16T14:44:02.414Z,12.45
2018-10-16T14:47:14.802Z,13.65
2018-10-16T14:50:26.729Z,16.35
2018-10-16T14:53:38.174Z,17.35
2018-10-16T14:56:49.319Z,14.93
2018-10-16T15:00:01.603Z,15.32
2018-10-16T15:03:13.447Z,14.60
2018-10-16T15:06:25.650Z,15.45
2018-10-16T15:09:37.908Z,16.52
2018-10-16T15:12:50.509Z,15.48
2018-10-16T15:16:01.989Z,14.50
2018-10-16T15:19:13.892Z,17.27
2018-10-16T15:22:27.985Z,19.00
2018-10-16T15:25:46.592Z,17.67
2018-10-16T15:28:58.808Z,17.37
2018-10-16T15:32:10.134Z,17.50
2018-10-16T15:35:22.297Z,17.27
2018-10-16T15:38:33.760Z,17.95
2018-10-16T15:41:45.904Z,15.70
2018-10-16T15:44:58.939Z,15.58
2018-10-16T15:48:10.822Z,15.60
2018-10-16T15:51:22.719Z,15.88
2018-10-16T15:54:35.149Z,17.65
2018-10-16T15:57:47.331Z,15.63
2018-10-16T16:00:59.117Z,16.00
2018-10-16T16:04:11.084Z,15.25
2018-10-16T16:07:23.046Z,15.03
2018-10-16T16:10:35.599Z,14.50
2018-10-16T16:13:47.662Z,13.30
2018-10-16T16:16:59.746Z,17.55
2018-10-16T16:20:13.558Z,17.67
2018-10-16T16:23:24.974Z,17.95
2018-10-16T16:26:36.138Z,16.85
2018-10-16T16:29:49.997Z,17.67
2018-10-16T16:33:02.176Z,18.15
2018-10-16T16:36:14.385Z,17.77
2018-10-16T16:39:28.146Z,19.82
2018-10-16T16:42:39.833Z,20.20
2018-10-16T16:45:51.661Z,18.95
2018-10-16T16:49:04.244Z,18.30
2018-10-16T16:52:15.525Z,16.80
2018-10-16T16:55:27.077Z,20.90
2018-10-16T16:58:39.051Z,15.20
2018-10-16T17:01:50.604Z,18.27
2018-10-16T17:05:03.278Z,16.27
2018-10-16T17:08:14.680Z,16.00
2018-10-16T17:11:27.478Z,18.12
2018-10-16T17:14:39.387Z,17.87
2018-10-16T17:17:51.009Z,19.82
2018-10-16T17:21:03.577Z,19.80
2018-10-16T17:24:15.285Z,15.72
2018-10-16T17:27:26.694Z,18.82
2018-10-16T17:30:38.825Z,14.78
2018-10-16T17:33:50.120Z,17.60
2018-10-16T17:37:02.048Z,15.25
2018-10-16T17:40:14.637Z,15.35
2018-10-16T17:43:26.157Z,17.02
2018-10-16T17:46:37.895Z,16.42
2018-10-16T17:49:49.456Z,18.20
2018-10-16T17:53:01.511Z,21.82
2018-10-16T17:56:13.433Z,16.27
2018-10-16T17:59:25.473Z,13.72
2018-10-16T18:02:37.638Z,17.57
2018-10-16T18:05:49.539Z,14.33
2018-10-16T18:09:00.841Z,17.20
2018-10-16T18:12:13.005Z,15.50
2018-10-16T18:15:24.632Z,16.70
2018-10-16T18:18:36.750Z,15.88
2018-10-16T18:21:48.143Z,14.70
2018-10-16T18:24:59.415Z,16.95
2018-10-16T18:28:10.718Z,14.23
2018-10-16T18:31:23.051Z,16.12
2018-10-16T18:34:34.845Z,17.52
2018-10-16T18:37:46.787Z,15.93
2018-10-16T18:40:58.038Z,15.83
2018-10-16T18:44:10.849Z,17.73
2018-10-16T18:47:23.230Z,18.73
2018-10-16T18:50:35.362Z,17.77
2018-10-16T18:53:46.781Z,19.52
2018-10-16T18:56:58.833Z,17.45
2018-10-16T19:00:13.810Z,18.95
2018-10-16T19:03:25.628Z,17.80
2018-10-16T19:06:38.505Z,17.02
2018-10-16T19:09:50.525Z,18.73
2018-10-16T19:13:03.567Z,18.75
2018-10-16T19:16:14.696Z,20.77
2018-10-16T19:19:26.453Z,16.07
2018-10-16T19:22:38.111Z,18.60
2018-10-16T19:25:49.932Z,20.12
2018-10-16T19:29:01.841Z,19.20
2018-10-16T19:32:13.379Z,21.15
2018-10-16T19:35:29.605Z,19.42
2018-10-16T19:38:41.496Z,22.07
2018-10-16T19:41:52.629Z,19.57
2018-10-16T19:45:05.016Z,20.32
2018-10-16T19:51:59.656Z,19.00
2018-10-16T19:55:11.712Z,17.82
2018-10-16T19:58:23.673Z,16.10
2018-10-16T20:01:36.663Z,20.15
2018-10-16T20:04:48.807Z,21.82
2018-10-16T20:08:00.055Z,20.77
2018-10-16T20:11:11.343Z,18.62
2018-10-16T20:14:22.875Z,21.75
2018-10-16T20:17:34.484Z,17.57
2018-10-16T20:20:45.740Z,19.37
2018-10-16T20:23:56.901Z,19.17
2018-10-16T20:27:08.863Z,21.33
2018-10-16T20:30:20.255Z,20.85
2018-10-16T20:33:31.694Z,21.40
2018-10-16T20:36:43.259Z,24.77
2018-10-16T20:39:54.931Z,21.10
2018-10-16T20:43:07.739Z,19.75
2018-10-16T20:46:19.557Z,22.32
2018-10-16T20:49:31.254Z,21.90
2018-10-16T20:52:43.266Z,20.52
2018-10-16T20:55:54.373Z,23.62
2018-10-16T20:59:05.577Z,20.20
2018-10-16T21:02:17.819Z,19.92
2018-10-16T21:05:29.739Z,20.55
2018-10-16T21:08:41.935Z,21.85
2018-10-16T21:11:54.001Z,20.08
2018-10-16T21:15:06.528Z,22.35
2018-10-16T21:18:17.683Z,22.82
2018-10-16T21:21:28.897Z,20.77
2018-10-16T21:24:40.749Z,20.02
2018-10-16T21:27:53.126Z,23.80
2018-10-16T21:31:05.302Z,23.38
2018-10-16T21:34:16.909Z,21.37
2018-10-16T21:37:28.145Z,21.20
2018-10-16T21:40:39.823Z,22.67
2018-10-16T21:43:51.085Z,23.92
2018-10-16T21:47:03.003Z,20.92
2018-10-16T21:50:14.538Z,20.15
2018-10-16T21:53:26.769Z,18.70
2018-10-16T21:56:39.018Z,20.17
2018-10-16T21:59:50.234Z,20.55
2018-10-16T22:03:02.117Z,22.15
2018-10-16T22:06:14.840Z,21.02
2018-10-16T22:09:26.610Z,21.15
2018-10-16T22:12:38.680Z,23.67
2018-10-16T22:15:50.548Z,21.60
2018-10-16T22:19:02.329Z,19.92
2018-10-16T22:22:14.230Z,19.85
2018-10-16T22:25:25.362Z,21.62
2018-10-16T22:28:36.983Z,22.15
2018-10-16T22:31:49.337Z,21.15
2018-10-16T22:35:00.653Z,18.82
2018-10-16T22:38:12.581Z,19.55
2018-10-16T22:41:24.582Z,16.45
2018-10-16T22:44:36.534Z,22.22
2018-10-16T22:47:48.807Z,19.37
2018-10-16T22:51:00.702Z,21.40
2018-10-16T22:54:12.574Z,20.30
2018-10-16T22:57:23.893Z,21.37
2018-10-16T23:00:54.402Z,20.12
2018-10-16T23:04:06.517Z,23.47
2018-10-16T23:07:18.003Z,21.12
2018-10-16T23:10:33.434Z,17.75
2018-10-16T23:13:47.500Z,18.27
2018-10-16T23:17:00.009Z,22.95
2018-10-16T23:20:12.659Z,18.32
2018-10-16T23:23:24.244Z,16.90
2018-10-16T23:26:35.766Z,16.95
2018-10-16T23:29:46.960Z,17.70
2018-10-16T23:32:58.202Z,19.00
2018-10-16T23:36:09.603Z,20.08
2018-10-16T23:39:21.705Z,17.37
2018-10-16T23:42:33.668Z,21.05
2018-10-16T23:45:45.632Z,21.30
2018-10-16T23:48:57.666Z,16.90
2018-10-16T23:52:09.806Z,19.23
2018-10-16T23:55:21.025Z,16.20
2018-10-16T23:58:33.068Z,16.27
